Terminal Aerodrome Forecast
Issued by NWS Tuscon, AZ

Home | Current Version | Previous Version | Text Only | Print | Product List | Glossary On
Versions: 1 2 3 4 5 6 7 8 9 10 11 12 13
791
FTUS45 KTWC 300520
TAFDUG
TAF
KDUG 300520Z 3006/3106 09007KT P6SM SCT100
     FM301500 09013G19KT P6SM SCT060 BKN100
     FM302000 09011KT P6SM VCSH SCT060 BKN100
     FM310100 11009KT P6SM SCT080=

USA.gov is the U.S. government's official web portal to all federal, state and local government web resources and services.